Time;durP1;ratioP1;P1;durP2;ratioP2;P2;SDS_P1;SDS_P2;PMS_P1;PMS_P2;Temp;Humidity;BMP_temperature;BMP_pressure;BME280_temperature;BME280_humidity;BME280_pressure;Samples;Min_cycle;Max_cycle;Signal;HPM_P1;HPM_P2
2021/03/03 10:15:36;;;;;;;36.03;19.50;;;13.50;95.00;;;;;;4707300;30;20229;-82
2021/03/03 11:09:35;;;;;;;28.08;21.08;;;15.00;92.60;;;;;;4724142;30;20299;-84
2021/03/03 11:12:06;;;;;;;30.58;21.55;;;15.00;92.00;;;;;;4788759;29;20237;-84
2021/03/03 11:14:33;;;;;;;31.02;23.15;;;15.20;92.20;;;;;;4875890;28;20250;-85
2021/03/03 11:17:06;;;;;;;27.05;22.80;;;15.30;91.60;;;;;;4972947;28;20238;-85
2021/03/03 11:19:33;;;;;;;33.63;24.40;;;15.30;91.40;;;;;;4976341;28;20214;-83
2021/03/03 11:21:59;;;;;;;30.45;23.67;;;15.30;91.70;;;;;;4966955;28;20262;-85
2021/03/03 11:24:27;;;;;;;28.23;22.17;;;15.60;92.20;;;;;;4973409;28;20207;-83
2021/03/03 11:26:54;;;;;;;37.42;24.10;;;15.60;92.00;;;;;;4960558;29;20307;-85
2021/03/03 11:29:21;;;;;;;30.52;23.15;;;15.40;91.50;;;;;;4968774;29;20246;-82
2021/03/03 11:32:30;;;;;;;29.00;19.50;;;15.70;91.90;;;;;;4975088;29;20227;-84
2021/03/03 11:38:15;;;;;;;30.98;22.98;;;15.80;91.50;;;;;;4967291;29;20240;-86
2021/03/03 11:40:47;;;;;;;30.95;22.52;;;15.90;91.50;;;;;;4969007;29;20308;-86
2021/03/03 11:43:14;;;;;;;32.35;22.45;;;16.00;91.70;;;;;;4969772;28;20357;-84
2021/03/03 11:45:40;;;;;;;27.48;21.17;;;15.80;91.60;;;;;;4972911;28;20206;-82
2021/03/03 11:48:08;;;;;;;30.90;24.08;;;16.00;91.80;;;;;;4968207;28;20210;-84
2021/03/03 11:50:37;;;;;;;27.27;21.70;;;15.70;91.60;;;;;;4973856;28;20213;-84
2021/03/03 11:53:06;;;;;;;27.23;22.35;;;16.10;92.20;;;;;;4966147;29;20206;-81
2021/03/03 11:55:37;;;;;;;33.75;23.70;;;16.20;91.80;;;;;;4968996;28;20646;-82
2021/03/03 11:58:07;;;;;;;32.20;21.97;;;16.20;91.80;;;;;;4973175;28;20223;-83
2021/03/03 12:00:34;;;;;;;36.72;24.25;;;16.60;92.30;;;;;;4966969;28;20462;-84
2021/03/03 12:03:01;;;;;;;30.98;23.95;;;16.40;91.00;;;;;;4967679;29;20212;-83
2021/03/03 12:05:28;;;;;;;32.38;24.10;;;16.20;91.10;;;;;;4969179;28;20268;-83
2021/03/03 12:07:56;;;;;;;31.65;25.88;;;16.00;91.40;;;;;;4970669;28;20677;-82
2021/03/03 12:10:23;;;;;;;36.50;25.30;;;15.90;91.50;;;;;;4966897;29;20212;-82
2021/03/03 12:12:50;;;;;;;34.08;24.25;;;15.90;92.00;;;;;;4968296;28;20216;-82
2021/03/03 12:15:20;;;;;;;35.10;24.42;;;16.00;92.20;;;;;;4977847;28;20203;-83
2021/03/03 12:17:47;;;;;;;38.63;24.85;;;15.80;91.90;;;;;;4967124;28;20240;-82
2021/03/03 12:20:19;;;;;;;35.45;24.30;;;15.70;91.80;;;;;;4967015;28;20241;-82
2021/03/03 12:22:46;;;;;;;32.97;24.67;;;15.80;92.10;;;;;;4979046;28;20204;-82
2021/03/03 12:25:18;;;;;;;35.83;26.15;;;16.00;92.00;;;;;;4968953;28;20235;-83
2021/03/03 12:27:46;;;;;;;38.17;25.50;;;15.60;91.70;;;;;;5135147;23;20235;-71
2021/03/03 12:30:14;;;;;;;38.60;28.08;;;15.80;92.10;;;;;;4971631;28;20218;-74
2021/03/03 12:32:41;;;;;;;45.30;27.23;;;15.60;92.20;;;;;;4963285;28;20305;-72
2021/03/03 12:35:09;;;;;;;37.47;26.67;;;15.50;92.50;;;;;;4958906;28;20327;-72
2021/03/03 12:37:35;;;;;;;38.80;25.80;;;15.50;92.70;;;;;;4957394;28;20571;-74
2021/03/03 12:40:02;;;;;;;37.40;26.08;;;15.50;92.70;;;;;;4954757;28;20251;-72
2021/03/03 12:42:29;;;;;;;37.65;24.80;;;15.60;92.80;;;;;;4962884;28;20230;-74
2021/03/03 12:44:56;;;;;;;38.10;27.85;;;15.60;93.10;;;;;;4963054;28;20351;-73
2021/03/03 12:47:22;;;;;;;38.38;26.83;;;15.50;93.00;;;;;;4965845;28;20202;-72
2021/03/03 12:49:50;;;;;;;35.42;26.92;;;15.60;93.40;;;;;;4965153;28;20303;-72
2021/03/03 12:52:16;;;;;;;37.92;27.42;;;15.40;93.10;;;;;;4965198;28;20225;-72
2021/03/03 12:54:43;;;;;;;49.22;31.55;;;15.30;93.40;;;;;;4970953;28;20226;-75
2021/03/03 12:57:09;;;;;;;40.53;27.67;;;15.20;93.60;;;;;;4972138;28;20206;-77
2021/03/03 12:59:36;;;;;;;35.55;26.90;;;15.10;94.10;;;;;;4965404;28;20209;-73
2021/03/03 13:02:03;;;;;;;44.03;27.58;;;15.00;94.10;;;;;;4973815;28;20210;-73
2021/03/03 13:04:30;;;;;;;41.97;29.48;;;15.00;94.30;;;;;;4966148;28;20203;-72
2021/03/03 13:06:58;;;;;;;39.17;28.73;;;15.20;94.10;;;;;;4971341;28;20261;-73
2021/03/03 13:09:24;;;;;;;44.13;28.65;;;15.40;93.70;;;;;;4963291;28;20569;-72
2021/03/03 13:11:51;;;;;;;45.92;31.17;;;15.50;93.50;;;;;;4957949;28;20662;-72
2021/03/03 13:14:18;;;;;;;37.33;28.27;;;15.50;93.50;;;;;;4962336;28;20237;-74
2021/03/03 13:16:44;;;;;;;38.78;27.58;;;15.50;93.80;;;;;;4971525;28;20214;-73
2021/03/03 13:19:12;;;;;;;38.53;29.70;;;15.60;93.70;;;;;;4969088;28;20219;-74
2021/03/03 13:21:38;;;;;;;43.50;30.05;;;15.70;93.60;;;;;;4960025;28;20198;-74
2021/03/03 13:24:07;;;;;;;47.00;32.72;;;15.90;93.50;;;;;;4966154;28;20222;-70
2021/03/03 13:26:34;;;;;;;36.20;28.77;;;15.90;93.40;;;;;;4974463;28;20253;-73
2021/03/03 13:29:00;;;;;;;42.67;31.02;;;15.90;93.20;;;;;;4959784;28;20290;-74
2021/03/03 13:31:27;;;;;;;47.75;32.78;;;15.80;93.00;;;;;;4973832;28;20198;-72
2021/03/03 13:33:54;;;;;;;49.47;33.47;;;15.60;93.40;;;;;;4963779;28;20235;-74
2021/03/03 13:36:20;;;;;;;41.47;32.40;;;15.70;94.00;;;;;;4961625;28;20257;-71
2021/03/03 13:38:49;;;;;;;45.33;34.03;;;15.80;94.20;;;;;;4965811;28;20202;-74
2021/03/03 13:41:16;;;;;;;45.45;33.63;;;15.80;93.80;;;;;;4968379;28;20576;-72
2021/03/03 13:43:43;;;;;;;40.95;30.52;;;15.80;94.00;;;;;;4973973;28;20215;-71
2021/03/03 13:46:09;;;;;;;46.60;35.45;;;15.70;94.60;;;;;;4957673;28;20218;-72
2021/03/03 13:48:37;;;;;;;45.78;34.88;;;15.70;94.20;;;;;;4962029;28;20198;-73
2021/03/03 13:51:04;;;;;;;43.65;35.17;;;15.60;94.50;;;;;;4972922;28;20241;-73
2021/03/03 13:53:30;;;;;;;51.72;36.17;;;15.60;94.60;;;;;;4972687;28;20230;-72
2021/03/03 13:55:57;;;;;;;51.25;37.25;;;15.60;94.60;;;;;;4973236;28;20202;-74
2021/03/03 13:58:24;;;;;;;52.92;37.20;;;15.60;94.70;;;;;;4961239;28;20331;-73
2021/03/03 14:00:54;;;;;;;50.85;36.80;;;15.50;94.70;;;;;;4973525;28;20210;-76
2021/03/03 14:03:21;;;;;;;54.67;39.78;;;15.30;95.00;;;;;;4961444;28;20222;-72
2021/03/03 14:05:47;;;;;;;46.67;35.78;;;15.10;95.10;;;;;;4964210;28;20221;-73
2021/03/03 14:08:14;;;;;;;52.80;39.83;;;15.10;95.80;;;;;;4961365;28;20588;-73
2021/03/03 14:10:41;;;;;;;54.10;40.00;;;15.10;95.80;;;;;;4961500;28;20214;-71
2021/03/03 14:13:07;;;;;;;59.03;44.28;;;15.00;94.30;;;;;;4965147;28;20227;-72
2021/03/03 14:15:35;;;;;;;58.65;44.70;;;14.70;94.30;;;;;;4962125;28;20215;-72
2021/03/03 14:18:01;;;;;;;60.05;44.63;;;14.60;94.80;;;;;;4972897;28;20213;-73
2021/03/03 14:20:28;;;;;;;59.28;42.25;;;14.60;94.60;;;;;;4966521;28;20214;-73
2021/03/03 14:22:55;;;;;;;67.93;46.03;;;14.50;95.30;;;;;;4965212;28;20293;-73
2021/03/03 14:25:21;;;;;;;59.83;45.40;;;14.60;95.20;;;;;;4970380;28;20198;-74
2021/03/03 14:27:48;;;;;;;62.55;44.85;;;14.50;95.30;;;;;;4958083;28;20211;-72
2021/03/03 14:30:16;;;;;;;62.13;46.03;;;14.50;95.50;;;;;;4962505;28;20269;-73
2021/03/03 14:32:43;;;;;;;55.63;43.25;;;14.20;95.50;;;;;;4970897;28;20589;-74
2021/03/03 14:35:11;;;;;;;62.47;46.95;;;14.10;96.00;;;;;;4959657;28;20234;-71
2021/03/03 14:37:37;;;;;;;63.95;46.15;;;14.00;96.60;;;;;;4968939;28;20252;-71
2021/03/03 14:40:05;;;;;;;59.15;45.38;;;14.00;97.10;;;;;;4970470;28;20218;-73
2021/03/03 14:42:32;;;;;;;65.05;46.30;;;13.90;97.10;;;;;;4965418;28;20580;-71
2021/03/03 14:44:59;;;;;;;56.38;42.92;;;14.00;97.20;;;;;;4972655;28;20213;-74
2021/03/03 14:47:26;;;;;;;65.68;48.50;;;13.90;97.80;;;;;;4965138;28;20751;-74
2021/03/03 14:49:53;;;;;;;60.25;47.40;;;13.90;97.80;;;;;;4966504;28;20206;-72
2021/03/03 14:52:20;;;;;;;66.85;47.53;;;13.80;98.10;;;;;;4968635;28;20606;-72
2021/03/03 14:54:46;;;;;;;62.40;46.60;;;13.80;98.60;;;;;;4969859;28;20632;-73
2021/03/03 14:57:13;;;;;;;59.20;47.50;;;13.90;98.80;;;;;;4970888;28;20649;-73
2021/03/03 14:59:41;;;;;;;61.67;47.65;;;13.90;98.90;;;;;;4966163;28;20199;-73
2021/03/03 15:02:09;;;;;;;67.03;47.63;;;13.90;98.70;;;;;;4969000;28;20623;-73
2021/03/03 15:04:36;;;;;;;71.13;49.35;;;13.80;98.70;;;;;;4967905;28;20685;-72
2021/03/03 15:07:04;;;;;;;68.85;53.22;;;13.80;98.90;;;;;;4970199;28;20238;-72
2021/03/03 15:09:31;;;;;;;66.47;49.78;;;13.80;98.80;;;;;;4968954;28;20213;-72
2021/03/03 15:11:57;;;;;;;66.95;49.00;;;13.60;99.20;;;;;;4971537;28;20221;-73
2021/03/03 15:14:24;;;;;;;69.15;51.85;;;13.60;99.70;;;;;;4966387;28;20245;-74
2021/03/03 15:16:53;;;;;;;58.78;46.10;;;13.70;99.60;;;;;;4962571;28;20708;-72
2021/03/03 15:19:19;;;;;;;67.43;48.60;;;13.70;99.90;;;;;;4956338;28;20210;-72
2021/03/03 15:21:46;;;;;;;68.00;49.63;;;13.70;99.30;;;;;;4959073;28;20203;-72
2021/03/03 15:24:13;;;;;;;64.35;48.90;;;13.70;99.50;;;;;;4968732;28;20731;-72
2021/03/03 15:26:40;;;;;;;70.38;50.38;;;13.70;99.70;;;;;;4957977;28;20694;-74
2021/03/03 15:29:07;;;;;;;71.90;51.72;;;13.70;99.10;;;;;;4967565;28;20313;-74
2021/03/03 15:31:33;;;;;;;63.88;50.58;;;13.60;99.30;;;;;;4966147;28;20216;-74
2021/03/03 15:34:00;;;;;;;68.95;51.55;;;13.70;99.80;;;;;;4967738;28;20241;-72
2021/03/03 15:36:27;;;;;;;68.60;51.35;;;13.60;99.30;;;;;;4966694;28;20201;-71
2021/03/03 15:38:54;;;;;;;69.45;52.88;;;13.60;99.30;;;;;;4975088;28;20209;-73
2021/03/03 15:41:22;;;;;;;75.80;53.90;;;13.60;99.20;;;;;;4964563;28;20649;-72
2021/03/03 15:43:48;;;;;;;67.78;50.20;;;13.50;99.60;;;;;;4972491;28;20635;-73
2021/03/03 15:46:15;;;;;;;77.63;55.95;;;13.50;99.90;;;;;;4965488;28;20217;-73
2021/03/03 15:48:41;;;;;;;72.43;50.50;;;13.50;99.10;;;;;;4973096;28;20213;-72
2021/03/03 15:51:08;;;;;;;82.63;58.90;;;13.50;99.40;;;;;;4973983;28;20212;-73
2021/03/03 15:53:35;;;;;;;75.72;58.28;;;13.40;99.20;;;;;;4970985;28;20233;-74
2021/03/03 15:56:01;;;;;;;76.82;59.67;;;13.30;99.20;;;;;;4967526;28;20206;-72
2021/03/03 15:58:30;;;;;;;67.78;53.28;;;13.30;99.60;;;;;;4962409;28;20283;-72
2021/03/03 16:00:57;;;;;;;66.05;53.00;;;13.20;99.90;;;;;;4963829;28;20224;-72
2021/03/03 16:03:25;;;;;;;74.72;60.90;;;13.30;99.90;;;;;;4956377;28;20233;-73
2021/03/03 16:05:51;;;;;;;76.97;58.13;;;13.30;99.90;;;;;;4956821;28;20695;-71
2021/03/03 16:08:20;;;;;;;78.53;58.22;;;13.20;99.90;;;;;;4956582;28;20210;-71
2021/03/03 16:10:46;;;;;;;66.88;54.75;;;13.10;99.90;;;;;;4966059;28;20206;-74
2021/03/03 16:13:13;;;;;;;75.07;60.53;;;13.10;99.90;;;;;;4956259;28;20600;-73
2021/03/03 16:15:41;;;;;;;73.90;61.13;;;13.10;99.90;;;;;;4959157;28;20284;-70
2021/03/03 16:18:07;;;;;;;65.60;56.92;;;13.00;99.90;;;;;;4966957;28;20214;-72
2021/03/03 16:20:34;;;;;;;69.03;58.25;;;13.00;99.90;;;;;;4971394;28;20245;-74
2021/03/03 16:23:00;;;;;;;71.55;59.63;;;13.00;99.90;;;;;;4973816;28;20610;-72
2021/03/03 16:25:27;;;;;;;69.55;61.25;;;12.90;99.90;;;;;;4962428;28;20201;-73
2021/03/03 16:27:54;;;;;;;83.07;62.60;;;12.70;99.90;;;;;;4965751;28;20216;-73
2021/03/03 16:30:21;;;;;;;75.53;62.00;;;12.60;99.90;;;;;;4970700;28;20287;-72
2021/03/03 16:32:49;;;;;;;79.85;61.90;;;12.50;99.90;;;;;;4966902;28;20609;-72
2021/03/03 16:35:16;;;;;;;81.03;64.43;;;12.50;99.90;;;;;;4967671;28;20595;-73
2021/03/03 16:37:44;;;;;;;75.70;60.65;;;12.40;99.90;;;;;;4961669;28;20197;-73
2021/03/03 16:40:13;;;;;;;70.03;58.08;;;12.30;99.90;;;;;;4957254;28;20204;-70
2021/03/03 16:42:40;;;;;;;81.93;64.18;;;12.30;99.90;;;;;;4967869;28;20235;-73
2021/03/03 16:45:11;;;;;;;79.85;65.40;;;12.30;99.90;;;;;;4970989;28;20204;-72
2021/03/03 16:47:37;;;;;;;87.57;62.97;;;12.20;99.90;;;;;;4969414;28;20257;-72
2021/03/03 16:50:06;;;;;;;85.32;65.05;;;12.10;99.90;;;;;;4965424;28;20690;-72
2021/03/03 16:52:33;;;;;;;83.05;61.55;;;12.00;99.90;;;;;;4958654;28;20254;-73
2021/03/03 16:55:00;;;;;;;78.70;60.42;;;11.90;99.90;;;;;;4961777;28;20235;-72
2021/03/03 16:57:27;;;;;;;80.45;65.32;;;11.80;99.90;;;;;;4968686;28;20207;-72
2021/03/03 16:59:54;;;;;;;81.93;64.13;;;11.80;99.90;;;;;;4962087;28;20671;-73
2021/03/03 17:02:21;;;;;;;78.75;61.00;;;11.70;99.90;;;;;;4962635;28;20206;-72
2021/03/03 17:04:47;;;;;;;80.32;65.38;;;11.60;99.90;;;;;;4966957;28;20330;-72
2021/03/03 17:07:15;;;;;;;89.10;71.28;;;11.60;99.90;;;;;;4966816;28;20625;-73
2021/03/03 17:09:41;;;;;;;88.47;69.97;;;11.50;99.90;;;;;;4973396;28;20213;-73
2021/03/03 17:12:09;;;;;;;88.65;70.95;;;11.40;99.90;;;;;;4971542;28;20571;-72
2021/03/03 17:14:36;;;;;;;81.25;67.85;;;11.30;99.90;;;;;;4957745;28;20218;-72
2021/03/03 17:17:04;;;;;;;83.90;68.30;;;11.20;99.90;;;;;;4960313;28;20206;-73
2021/03/03 17:19:31;;;;;;;84.25;66.82;;;11.20;99.90;;;;;;4966236;28;20535;-74
2021/03/03 17:21:58;;;;;;;75.72;62.40;;;11.10;99.90;;;;;;4967054;28;20556;-73
2021/03/03 17:24:25;;;;;;;80.32;60.67;;;11.20;99.90;;;;;;4962135;28;20225;-73
2021/03/03 17:26:52;;;;;;;82.80;66.35;;;11.20;99.90;;;;;;4962701;28;20226;-73
2021/03/03 17:29:19;;;;;;;80.20;62.25;;;11.20;99.90;;;;;;4970498;28;20198;-72
2021/03/03 17:31:45;;;;;;;83.32;64.55;;;11.20;99.90;;;;;;4962765;28;20240;-71
2021/03/03 17:34:12;;;;;;;83.15;68.28;;;11.10;99.90;;;;;;4970807;28;20290;-70
2021/03/03 17:36:39;;;;;;;88.55;65.88;;;11.10;99.90;;;;;;4961838;28;20249;-71
2021/03/03 17:39:06;;;;;;;95.15;71.55;;;11.00;99.90;;;;;;4957641;28;20780;-72
2021/03/03 17:41:33;;;;;;;84.22;61.85;;;10.90;99.90;;;;;;4968516;28;20207;-73
2021/03/03 17:44:00;;;;;;;88.80;70.15;;;10.80;99.90;;;;;;4963434;28;20634;-73
2021/03/03 17:46:26;;;;;;;79.13;65.03;;;10.70;99.90;;;;;;4959493;28;20202;-72
2021/03/03 17:48:53;;;;;;;84.03;69.55;;;10.60;99.90;;;;;;4959787;28;20206;-73
2021/03/03 17:51:20;;;;;;;88.65;66.60;;;10.50;99.90;;;;;;4963256;28;20281;-70
2021/03/03 17:53:47;;;;;;;80.13;61.70;;;10.40;99.90;;;;;;4957372;28;20227;-72
2021/03/03 17:56:14;;;;;;;84.47;64.60;;;10.30;99.90;;;;;;4954757;28;20218;-76
2021/03/03 17:58:41;;;;;;;90.72;69.65;;;10.30;99.90;;;;;;4958597;28;20297;-73
2021/03/03 18:01:08;;;;;;;81.43;61.03;;;10.30;99.90;;;;;;4956654;28;20217;-74
2021/03/03 18:03:34;;;;;;;84.03;65.18;;;10.30;99.90;;;;;;4962834;28;20254;-73
2021/03/03 18:06:01;;;;;;;91.78;64.90;;;10.40;99.90;;;;;;4960852;28;20198;-72
2021/03/03 18:08:27;;;;;;;84.38;63.63;;;10.30;99.90;;;;;;4966058;28;20213;-74
2021/03/03 18:10:54;;;;;;;74.20;59.17;;;10.30;99.90;;;;;;4957962;28;20203;-73
2021/03/03 18:13:21;;;;;;;75.38;59.15;;;10.20;99.90;;;;;;4960326;28;20222;-74
2021/03/03 18:15:49;;;;;;;68.85;54.85;;;10.00;99.90;;;;;;4957316;28;20214;-74
2021/03/03 18:18:15;;;;;;;73.18;56.05;;;9.70;99.90;;;;;;4965027;28;20605;-73
2021/03/03 18:20:42;;;;;;;83.03;61.60;;;9.40;99.90;;;;;;4962265;28;20198;-72
2021/03/03 18:23:09;;;;;;;89.43;64.30;;;9.10;99.90;;;;;;4962742;28;20227;-73
2021/03/03 18:25:36;;;;;;;85.43;65.55;;;8.80;99.90;;;;;;4956383;28;20543;-72
2021/03/03 18:28:03;;;;;;;93.75;64.13;;;8.40;99.90;;;;;;5046360;23;20229;-83
2021/03/03 18:30:30;;;;;;;98.55;67.05;;;8.20;99.90;;;;;;4989985;28;20205;-84
2021/03/03 18:32:57;;;;;;;95.50;67.20;;;8.00;99.90;;;;;;4999105;28;20293;-83
2021/03/03 18:35:30;;;;;;;97.40;68.40;;;7.90;99.90;;;;;;5006218;28;20222;-84
2021/03/03 18:37:57;;;;;;;96.03;65.68;;;7.70;99.90;;;;;;4983941;28;20251;-84
2021/03/03 18:40:23;;;;;;;111.13;72.25;;;7.60;99.90;;;;;;4986816;28;20215;-83
2021/03/03 18:43:01;;;;;;;108.78;73.75;;;7.50;99.90;;;;;;4980541;28;20521;-83
2021/03/03 18:45:37;;;;;;;104.57;71.38;;;7.50;99.90;;;;;;4978869;28;20571;-85
2021/03/03 18:48:06;;;;;;;118.60;70.93;;;7.50;99.90;;;;;;4968541;28;20292;-83
2021/03/03 18:50:33;;;;;;;108.32;69.10;;;7.40;99.90;;;;;;4980297;28;20264;-83
2021/03/03 18:53:00;;;;;;;119.22;77.38;;;7.40;99.90;;;;;;4980871;28;20207;-82
2021/03/03 18:55:27;;;;;;;127.13;81.68;;;7.40;99.90;;;;;;4986782;28;20228;-82
2021/03/03 18:57:54;;;;;;;140.25;84.60;;;7.40;99.90;;;;;;4982107;28;20324;-83
2021/03/03 19:00:22;;;;;;;149.52;89.05;;;7.40;99.90;;;;;;4970258;28;20572;-83
2021/03/03 19:02:49;;;;;;;138.88;83.38;;;7.40;99.90;;;;;;4986135;28;20223;-82
2021/03/03 19:05:17;;;;;;;173.88;94.72;;;7.40;99.90;;;;;;4976542;28;20214;-82
2021/03/03 19:07:44;;;;;;;217.00;111.28;;;7.40;99.90;;;;;;4978756;28;20223;-83
2021/03/03 19:10:12;;;;;;;243.88;114.30;;;7.30;99.90;;;;;;4989553;28;20211;-83
2021/03/03 19:12:39;;;;;;;264.35;123.07;;;7.10;99.90;;;;;;4990689;28;20210;-85
2021/03/03 19:15:06;;;;;;;245.93;135.68;;;7.10;99.90;;;;;;4980664;28;20463;-82
2021/03/03 19:17:33;;;;;;;209.25;109.60;;;7.00;99.90;;;;;;4980244;28;20306;-84
2021/03/03 19:20:09;;;;;;;187.80;102.25;;;7.00;99.90;;;;;;4990391;28;20205;-84
2021/03/03 19:22:36;;;;;;;161.70;90.45;;;7.00;99.90;;;;;;4994473;28;20233;-85
2021/03/03 19:25:04;;;;;;;170.10;91.32;;;7.00;99.90;;;;;;4984458;28;20202;-84
2021/03/03 19:27:31;;;;;;;187.93;97.97;;;7.00;99.90;;;;;;4983579;28;20240;-82
2021/03/03 19:29:58;;;;;;;171.15;89.60;;;7.00;99.90;;;;;;4989138;28;20195;-82
2021/03/03 19:32:26;;;;;;;134.77;77.32;;;6.80;99.90;;;;;;5001891;28;20207;-82
2021/03/03 19:34:52;;;;;;;135.90;79.70;;;6.90;99.90;;;;;;4989203;28;20220;-83
2021/03/03 19:37:19;;;;;;;120.50;70.72;;;7.00;99.90;;;;;;4990896;28;20222;-82
2021/03/03 19:39:48;;;;;;;102.68;63.25;;;7.00;99.90;;;;;;4995263;28;20207;-83
2021/03/03 19:42:14;;;;;;;119.55;73.22;;;7.00;99.90;;;;;;4994512;28;20208;-82
2021/03/03 19:44:41;;;;;;;105.38;69.18;;;7.00;99.90;;;;;;4987044;28;20204;-82
2021/03/03 19:47:08;;;;;;;141.05;79.45;;;7.10;99.90;;;;;;4985081;28;20343;-85
2021/03/03 19:49:34;;;;;;;129.68;71.03;;;7.10;99.90;;;;;;4998004;28;20207;-83
2021/03/03 19:52:01;;;;;;;135.35;78.18;;;7.10;99.90;;;;;;4990598;28;20237;-82
2021/03/03 19:54:28;;;;;;;138.00;73.22;;;7.00;99.90;;;;;;4984876;28;20223;-83
2021/03/03 19:56:55;;;;;;;115.95;66.68;;;6.90;99.90;;;;;;4980910;28;20232;-84
2021/03/03 19:59:22;;;;;;;108.47;66.35;;;6.80;99.90;;;;;;4990416;28;20199;-81
2021/03/03 20:01:52;;;;;;;104.97;62.15;;;6.70;99.90;;;;;;4995987;28;20668;-83
2021/03/03 20:04:20;;;;;;;109.03;62.13;;;6.60;99.90;;;;;;4996792;28;20413;-82
2021/03/03 20:06:47;;;;;;;116.35;68.72;;;6.60;99.90;;;;;;4989817;28;20246;-83
2021/03/03 20:09:15;;;;;;;128.23;69.18;;;6.60;99.90;;;;;;4982850;28;20195;-82
2021/03/03 20:11:41;;;;;;;117.38;66.68;;;6.60;99.90;;;;;;4988220;28;20202;-83
2021/03/03 20:14:09;;;;;;;110.18;58.35;;;6.60;99.90;;;;;;5000302;28;20242;-83
2021/03/03 20:16:36;;;;;;;101.38;59.42;;;6.60;99.90;;;;;;4989041;28;20226;-82
2021/03/03 20:19:03;;;;;;;113.07;62.08;;;6.40;99.90;;;;;;4990588;28;20206;-81
2021/03/03 20:21:29;;;;;;;111.97;65.13;;;6.30;99.90;;;;;;4991492;28;20210;-82
2021/03/03 20:23:57;;;;;;;109.35;60.72;;;6.30;99.90;;;;;;4995751;28;20209;-83
2021/03/03 20:26:25;;;;;;;102.32;61.10;;;6.30;99.90;;;;;;4990807;28;20195;-82
2021/03/03 20:28:52;;;;;;;103.45;61.90;;;6.30;99.90;;;;;;4995096;28;20639;-82
2021/03/03 20:31:21;;;;;;;127.07;64.82;;;6.20;99.90;;;;;;4999408;28;20207;-82
2021/03/03 20:33:47;;;;;;;128.68;70.82;;;6.10;99.90;;;;;;4984626;28;20211;-82
2021/03/03 20:36:14;;;;;;;124.00;68.32;;;6.00;99.90;;;;;;4995595;28;20214;-82
2021/03/03 20:38:41;;;;;;;149.68;72.47;;;6.00;99.90;;;;;;4989153;28;20221;-81
2021/03/03 20:41:07;;;;;;;169.23;83.93;;;6.00;99.90;;;;;;4991431;28;20198;-81
2021/03/03 20:43:35;;;;;;;142.20;75.45;;;6.00;99.90;;;;;;4985409;28;20187;-81
2021/03/03 20:46:03;;;;;;;132.70;69.90;;;6.00;99.90;;;;;;4989231;28;20202;-82
2021/03/03 20:48:38;;;;;;;135.57;66.80;;;6.10;99.90;;;;;;4994558;28;20686;-81
2021/03/03 20:51:04;;;;;;;124.82;62.67;;;6.10;99.90;;;;;;4986151;28;20209;-82
2021/03/03 20:53:31;;;;;;;101.30;55.17;;;6.10;99.90;;;;;;4992486;28;20321;-83
2021/03/03 20:55:57;;;;;;;96.50;55.22;;;6.10;99.90;;;;;;4989086;28;20211;-81
2021/03/03 20:58:24;;;;;;;93.40;56.60;;;6.10;99.90;;;;;;4986509;28;20285;-83
2021/03/03 21:00:51;;;;;;;113.78;61.50;;;6.10;99.90;;;;;;4982283;28;20206;-81
2021/03/03 21:03:17;;;;;;;110.78;61.10;;;6.00;99.90;;;;;;4982489;28;20203;-81
2021/03/03 21:05:45;;;;;;;110.28;59.10;;;6.00;99.90;;;;;;4994767;28;20198;-83
2021/03/03 21:08:11;;;;;;;99.25;56.75;;;6.00;99.90;;;;;;4992717;28;20210;-83
2021/03/03 21:10:38;;;;;;;114.72;57.75;;;6.00;99.90;;;;;;5002295;28;20206;-82
2021/03/03 21:13:05;;;;;;;104.43;51.92;;;6.00;99.90;;;;;;4996654;28;20281;-83
2021/03/03 21:15:32;;;;;;;102.60;58.17;;;5.90;99.90;;;;;;4983584;28;20218;-83
2021/03/03 21:17:59;;;;;;;93.32;51.83;;;6.00;99.90;;;;;;4980875;28;20234;-84
2021/03/03 21:20:26;;;;;;;105.13;55.53;;;6.00;99.90;;;;;;4986037;28;20210;-82
2021/03/03 21:22:53;;;;;;;109.07;55.55;;;5.90;99.90;;;;;;4977731;28;20651;-82
2021/03/03 21:25:20;;;;;;;105.90;55.13;;;5.90;99.90;;;;;;4972286;28;20203;-82
2021/03/03 21:27:47;;;;;;;94.32;53.97;;;5.90;99.90;;;;;;4980687;28;20354;-81
2021/03/03 21:30:16;;;;;;;121.35;60.80;;;5.90;99.90;;;;;;4983556;28;20189;-82
2021/03/03 21:32:43;;;;;;;92.20;53.83;;;5.90;99.90;;;;;;4978604;28;20197;-83
2021/03/03 21:35:11;;;;;;;99.75;53.38;;;5.90;99.90;;;;;;4983452;28;20229;-82
2021/03/03 21:37:38;;;;;;;99.55;52.47;;;6.00;99.90;;;;;;4991871;28;20231;-83
2021/03/03 21:40:07;;;;;;;89.93;52.42;;;6.00;99.90;;;;;;4978438;28;20268;-82
2021/03/03 21:42:35;;;;;;;102.78;57.15;;;6.00;99.90;;;;;;4983729;28;20211;-83
2021/03/03 21:45:02;;;;;;;135.40;65.82;;;6.00;99.90;;;;;;4984200;28;20205;-82
2021/03/03 21:47:29;;;;;;;131.45;64.13;;;6.00;99.90;;;;;;4976444;28;20699;-83
2021/03/03 21:49:55;;;;;;;225.20;96.55;;;5.90;99.90;;;;;;4979796;28;20210;-83
2021/03/03 21:52:22;;;;;;;171.63;79.43;;;5.90;99.90;;;;;;4973236;28;20211;-84
2021/03/03 21:54:49;;;;;;;170.68;82.65;;;5.90;99.90;;;;;;4974581;28;20237;-83
2021/03/03 21:57:22;;;;;;;188.85;83.72;;;5.70;99.90;;;;;;4976467;28;20223;-83
2021/03/03 21:59:50;;;;;;;174.23;72.60;;;5.50;99.90;;;;;;4979100;28;20198;-83
2021/03/03 22:02:16;;;;;;;148.25;69.00;;;5.50;99.90;;;;;;4978153;28;20202;-85
2021/03/03 22:04:43;;;;;;;131.75;65.18;;;5.50;99.90;;;;;;4978888;28;20210;-83
2021/03/03 22:07:10;;;;;;;167.63;75.05;;;5.40;99.90;;;;;;4978418;28;20226;-83
2021/03/03 22:09:38;;;;;;;175.00;73.03;;;5.50;99.90;;;;;;4987422;28;20271;-82
2021/03/03 22:12:06;;;;;;;208.82;88.60;;;5.50;99.90;;;;;;4982448;28;20202;-83
2021/03/03 22:14:33;;;;;;;183.45;75.97;;;5.50;99.90;;;;;;4974169;28;20218;-83
2021/03/03 22:17:00;;;;;;;170.90;75.68;;;5.50;99.90;;;;;;4979011;28;20230;-83
2021/03/03 22:19:28;;;;;;;158.73;69.03;;;5.50;99.90;;;;;;4974847;28;20207;-84
2021/03/03 22:21:54;;;;;;;189.45;80.22;;;5.50;99.90;;;;;;4966986;28;20203;-87
2021/03/03 22:24:21;;;;;;;178.60;79.93;;;5.60;99.90;;;;;;4969896;28;20234;-84
2021/03/03 22:26:49;;;;;;;176.45;76.90;;;5.60;99.90;;;;;;4968121;28;20241;-86
2021/03/03 22:29:16;;;;;;;164.35;67.88;;;5.60;99.90;;;;;;4986037;28;20211;-85
2021/03/03 22:31:43;;;;;;;144.77;60.90;;;5.60;99.90;;;;;;4984776;28;20210;-82
2021/03/03 22:34:10;;;;;;;124.53;60.08;;;5.50;99.90;;;;;;4980743;28;20213;-83
2021/03/03 22:36:36;;;;;;;116.57;56.88;;;5.50;99.90;;;;;;4978666;28;20309;-84
2021/03/03 22:39:04;;;;;;;102.70;53.65;;;5.50;99.90;;;;;;4988477;28;20268;-83
2021/03/03 22:41:31;;;;;;;108.43;51.15;;;5.50;99.90;;;;;;4985418;28;20206;-85
2021/03/03 22:43:58;;;;;;;109.72;55.30;;;5.50;99.90;;;;;;4997292;28;20237;-85
2021/03/03 22:46:24;;;;;;;173.43;72.43;;;5.50;99.90;;;;;;4996695;28;20211;-85
2021/03/03 22:48:52;;;;;;;161.43;67.05;;;5.50;99.90;;;;;;4989544;28;20214;-84
2021/03/03 22:51:18;;;;;;;138.60;61.58;;;5.50;99.90;;;;;;4985183;28;20246;-85
2021/03/03 22:53:45;;;;;;;136.85;64.00;;;5.40;99.90;;;;;;4996901;28;20444;-83
2021/03/03 22:56:12;;;;;;;128.48;57.83;;;5.40;99.90;;;;;;4991590;28;20230;-84
2021/03/03 22:58:38;;;;;;;115.68;53.40;;;5.30;99.90;;;;;;4985555;28;20206;-82
2021/03/03 23:01:05;;;;;;;108.32;52.05;;;5.30;99.90;;;;;;5000050;28;20205;-83
2021/03/03 23:03:31;;;;;;;113.68;52.03;;;5.30;99.90;;;;;;4989751;28;20231;-82
2021/03/03 23:05:59;;;;;;;105.30;53.83;;;5.30;99.90;;;;;;4993649;28;20228;-83
2021/03/03 23:08:26;;;;;;;98.80;50.15;;;5.30;99.90;;;;;;4988724;28;20292;-83
2021/03/03 23:10:52;;;;;;;108.10;51.08;;;5.30;99.90;;;;;;4985168;28;20213;-84
2021/03/03 23:13:19;;;;;;;102.53;47.88;;;5.20;99.90;;;;;;4980606;28;20203;-84
2021/03/03 23:15:47;;;;;;;103.03;47.70;;;5.20;99.90;;;;;;4997093;28;20260;-84
2021/03/03 23:18:16;;;;;;;85.55;43.53;;;5.20;99.90;;;;;;4989918;28;21470;-84
2021/03/03 23:20:43;;;;;;;98.28;44.35;;;5.20;99.90;;;;;;4990415;28;20209;-83
2021/03/03 23:23:10;;;;;;;98.07;46.33;;;5.30;99.90;;;;;;5004275;28;20300;-84
2021/03/03 23:25:39;;;;;;;107.03;50.35;;;5.30;99.90;;;;;;4990050;28;20242;-83
2021/03/03 23:28:07;;;;;;;118.78;53.97;;;5.30;99.90;;;;;;4993892;28;20273;-84
2021/03/03 23:30:37;;;;;;;113.55;52.75;;;5.30;99.90;;;;;;4981257;28;20230;-84
2021/03/03 23:33:04;;;;;;;122.72;55.70;;;5.20;99.90;;;;;;4986574;28;20199;-83
2021/03/03 23:35:31;;;;;;;98.47;48.47;;;5.20;99.90;;;;;;4999816;28;20763;-84
2021/03/03 23:37:57;;;;;;;77.28;41.25;;;5.20;99.90;;;;;;4991688;28;20215;-84